Time;durP1;ratioP1;P1;durP2;ratioP2;P2;SDS_P1;SDS_P2;PMS_P1;PMS_P2;Temp;Humidity;BMP_temperature;BMP_pressure;BME280_temperature;BME280_humidity;BME280_pressure;Samples;Min_cycle;Max_cycle;Signal;HPM_P1;HPM_P2
2022/10/29 00:03:28;;;;;;;30.08;18.48;;;;;;;;;;10026876;28;20038;-66
2022/10/29 00:08:21;;;;;;;25.67;17.98;;;;;;;;;;10026793;28;20256;-67
2022/10/29 00:13:14;;;;;;;31.27;17.38;;;;;;;;;;10026795;28;20467;-67
2022/10/29 00:18:08;;;;;;;31.90;18.42;;;;;;;;;;10027789;28;20061;-67
2022/10/29 00:23:02;;;;;;;32.00;19.58;;;;;;;;;;10024538;28;20062;-68
2022/10/29 00:27:58;;;;;;;48.72;21.55;;;;;;;;;;10027242;28;20077;-68
2022/10/29 00:32:52;;;;;;;37.60;18.55;;;;;;;;;;10027183;28;20132;-67
2022/10/29 00:37:46;;;;;;;36.33;18.25;;;;;;;;;;10027484;28;20065;-68
2022/10/29 00:42:39;;;;;;;31.33;18.38;;;;;;;;;;10026293;28;20092;-68
2022/10/29 00:47:36;;;;;;;31.55;18.70;;;;;;;;;;10026529;28;20148;-68
2022/10/29 00:52:32;;;;;;;26.80;17.23;;;;;;;;;;10026546;28;20046;-67
2022/10/29 00:57:48;;;;;;;24.00;16.80;;;;;;;;;;10025850;28;20104;-68
2022/10/29 01:02:44;;;;;;;23.73;15.43;;;;;;;;;;10026886;28;20045;-69
2022/10/29 01:07:38;;;;;;;31.10;16.38;;;;;;;;;;10025108;28;20049;-68
2022/10/29 01:12:57;;;;;;;27.95;16.00;;;;;;;;;;10025603;28;20073;-69
2022/10/29 01:18:08;;;;;;;34.20;18.15;;;;;;;;;;10025708;28;20042;-68
2022/10/29 01:23:36;;;;;;;26.08;16.48;;;;;;;;;;10025639;28;20057;-68
2022/10/29 01:28:38;;;;;;;27.80;16.55;;;;;;;;;;10025759;28;20203;-67
2022/10/29 01:34:10;;;;;;;24.45;15.63;;;;;;;;;;10025321;28;20061;-67
2022/10/29 01:39:18;;;;;;;25.58;16.13;;;;;;;;;;10010257;28;20429;-68
2022/10/29 01:44:39;;;;;;;33.80;16.10;;;;;;;;;;10024696;28;20141;-67
2022/10/29 01:49:41;;;;;;;22.33;15.20;;;;;;;;;;10022845;28;20066;-67
2022/10/29 01:54:39;;;;;;;20.55;14.00;;;;;;;;;;10023753;28;20073;-67
2022/10/29 01:59:32;;;;;;;22.42;14.98;;;;;;;;;;10025157;28;20056;-67
2022/10/29 02:05:00;;;;;;;21.05;14.52;;;;;;;;;;10022624;28;20050;-67
2022/10/29 02:10:18;;;;;;;21.80;14.27;;;;;;;;;;10026347;28;20501;-67
2022/10/29 02:15:28;;;;;;;18.80;12.43;;;;;;;;;;10014121;28;20078;-68
2022/10/29 02:20:22;;;;;;;16.48;12.20;;;;;;;;;;10024717;28;20536;-67
2022/10/29 02:25:15;;;;;;;18.38;12.82;;;;;;;;;;10032215;28;20049;-68
2022/10/29 02:30:10;;;;;;;24.40;12.38;;;;;;;;;;10032317;28;20100;-68
2022/10/29 02:35:05;;;;;;;19.73;14.10;;;;;;;;;;10031860;28;20523;-68
2022/10/29 02:39:58;;;;;;;19.85;12.55;;;;;;;;;;10031176;28;20045;-68
2022/10/29 02:44:52;;;;;;;25.85;13.02;;;;;;;;;;10030961;28;20125;-66
2022/10/29 02:49:46;;;;;;;19.00;12.77;;;;;;;;;;10030491;28;20497;-66
2022/10/29 02:54:39;;;;;;;23.88;12.40;;;;;;;;;;10030075;28;20050;-66
2022/10/29 02:59:33;;;;;;;18.95;11.48;;;;;;;;;;10030113;28;20517;-67
2022/10/29 03:04:26;;;;;;;19.33;10.60;;;;;;;;;;10030200;28;20061;-66
2022/10/29 03:09:20;;;;;;;16.88;9.02;;;;;;;;;;10029557;28;20076;-66
2022/10/29 03:14:15;;;;;;;15.80;10.27;;;;;;;;;;10030000;28;20165;-66
2022/10/29 03:19:07;;;;;;;19.40;10.38;;;;;;;;;;10029218;28;20042;-66
2022/10/29 03:24:01;;;;;;;21.58;10.98;;;;;;;;;;10029399;28;20054;-66
2022/10/29 03:28:55;;;;;;;22.33;10.80;;;;;;;;;;10029189;28;20054;-67
2022/10/29 03:33:49;;;;;;;22.40;11.68;;;;;;;;;;10028853;28;20060;-67
2022/10/29 03:38:42;;;;;;;20.55;11.65;;;;;;;;;;10028239;28;20057;-67
2022/10/29 03:43:37;;;;;;;22.50;11.63;;;;;;;;;;10030264;28;20053;-67
2022/10/29 03:48:30;;;;;;;21.00;12.23;;;;;;;;;;10028006;28;20057;-68
2022/10/29 03:53:24;;;;;;;17.35;10.52;;;;;;;;;;10028284;28;20551;-68
2022/10/29 03:58:18;;;;;;;18.63;9.98;;;;;;;;;;10029049;28;20050;-67
2022/10/29 04:03:12;;;;;;;15.15;10.50;;;;;;;;;;10027352;28;20060;-67
2022/10/29 04:08:06;;;;;;;18.17;9.48;;;;;;;;;;10028150;28;20081;-67
2022/10/29 04:13:00;;;;;;;15.68;9.35;;;;;;;;;;10027835;28;20057;-67
2022/10/29 04:17:54;;;;;;;16.33;11.02;;;;;;;;;;10027717;28;20149;-68
2022/10/29 04:22:52;;;;;;;15.10;9.38;;;;;;;;;;10027701;28;20137;-67
2022/10/29 04:28:04;;;;;;;19.27;9.20;;;;;;;;;;10019156;28;20049;-67
2022/10/29 04:33:17;;;;;;;14.70;10.13;;;;;;;;;;10025732;28;20050;-68
2022/10/29 04:38:11;;;;;;;16.90;9.77;;;;;;;;;;10027742;28;20062;-68
2022/10/29 04:43:05;;;;;;;15.15;8.85;;;;;;;;;;10026609;28;20045;-68
2022/10/29 04:48:04;;;;;;;25.17;10.23;;;;;;;;;;10025336;28;20077;-68
2022/10/29 04:53:17;;;;;;;14.98;11.13;;;;;;;;;;10005554;28;20413;-68
2022/10/29 04:58:17;;;;;;;16.08;9.25;;;;;;;;;;10016715;28;20057;-68
2022/10/29 05:03:12;;;;;;;19.10;10.02;;;;;;;;;;10021421;28;20046;-68
2022/10/29 05:08:06;;;;;;;13.27;8.95;;;;;;;;;;10019265;28;20050;-67
2022/10/29 05:13:01;;;;;;;16.98;10.00;;;;;;;;;;10003489;28;20077;-66
2022/10/29 05:17:56;;;;;;;13.65;8.63;;;;;;;;;;10016054;28;20061;-66
2022/10/29 05:22:50;;;;;;;18.10;9.18;;;;;;;;;;10011966;28;20054;-67
2022/10/29 05:27:44;;;;;;;14.52;8.52;;;;;;;;;;10013090;28;20058;-67
2022/10/29 05:32:37;;;;;;;16.10;9.88;;;;;;;;;;10012206;28;20551;-67
2022/10/29 05:37:31;;;;;;;16.80;9.93;;;;;;;;;;10013871;28;20450;-67
2022/10/29 05:42:25;;;;;;;14.32;10.75;;;;;;;;;;10015116;28;20105;-69
2022/10/29 05:47:18;;;;;;;16.70;10.75;;;;;;;;;;10020559;28;20053;-69
2022/10/29 05:52:12;;;;;;;18.38;10.27;;;;;;;;;;10022469;28;20125;-69
2022/10/29 05:57:06;;;;;;;17.75;9.43;;;;;;;;;;10022034;28;20796;-68
2022/10/29 06:02:00;;;;;;;16.73;10.35;;;;;;;;;;10024954;28;20053;-69
2022/10/29 06:06:54;;;;;;;14.57;9.35;;;;;;;;;;10024168;28;20046;-68
2022/10/29 06:11:48;;;;;;;16.55;8.20;;;;;;;;;;10022413;28;20053;-69
2022/10/29 06:16:42;;;;;;;14.93;7.88;;;;;;;;;;10018878;28;20052;-69
2022/10/29 06:21:36;;;;;;;16.45;8.45;;;;;;;;;;10026092;28;20062;-70
2022/10/29 06:26:30;;;;;;;14.40;9.82;;;;;;;;;;10026991;28;20049;-70
2022/10/29 06:31:24;;;;;;;15.77;8.98;;;;;;;;;;10023324;28;20053;-71
2022/10/29 06:36:19;;;;;;;14.45;7.80;;;;;;;;;;10013134;28;20078;-70
2022/10/29 06:41:15;;;;;;;13.88;8.13;;;;;;;;;;10018293;28;20081;-70
2022/10/29 06:46:09;;;;;;;11.57;7.97;;;;;;;;;;10018132;28;20054;-71
2022/10/29 06:51:04;;;;;;;13.43;8.13;;;;;;;;;;10019851;28;20462;-70
2022/10/29 06:55:58;;;;;;;15.50;7.97;;;;;;;;;;10022201;28;20046;-70
2022/10/29 07:00:52;;;;;;;12.77;7.43;;;;;;;;;;10021408;28;20054;-68
2022/10/29 07:05:46;;;;;;;13.63;6.97;;;;;;;;;;10022297;28;20141;-68
2022/10/29 07:10:39;;;;;;;10.63;7.43;;;;;;;;;;10024657;28;20045;-69
2022/10/29 07:15:33;;;;;;;16.45;8.75;;;;;;;;;;10021202;28;20831;-68
2022/10/29 07:20:28;;;;;;;14.25;7.25;;;;;;;;;;10008103;28;20057;-68
2022/10/29 07:25:23;;;;;;;10.43;5.68;;;;;;;;;;10027315;28;20120;-68
2022/10/29 07:30:18;;;;;;;13.48;5.82;;;;;;;;;;10029110;28;20107;-68
2022/10/29 07:35:12;;;;;;;14.38;7.13;;;;;;;;;;10026061;28;20104;-67
2022/10/29 07:40:09;;;;;;;15.23;7.45;;;;;;;;;;10029279;28;20050;-67
2022/10/29 07:45:03;;;;;;;21.17;6.65;;;;;;;;;;10025246;28;20129;-67
2022/10/29 07:49:57;;;;;;;20.00;7.18;;;;;;;;;;10026068;28;20057;-67
2022/10/29 07:54:51;;;;;;;19.63;6.97;;;;;;;;;;10025825;28;20406;-67
2022/10/29 07:59:45;;;;;;;18.85;7.47;;;;;;;;;;10027354;28;20049;-67
2022/10/29 08:04:39;;;;;;;15.50;6.60;;;;;;;;;;10027357;28;20050;-67
2022/10/29 08:09:33;;;;;;;12.32;5.80;;;;;;;;;;10026955;28;20081;-67
2022/10/29 08:14:27;;;;;;;15.10;7.07;;;;;;;;;;10027631;28;20053;-67
2022/10/29 08:19:21;;;;;;;12.38;6.65;;;;;;;;;;10027668;28;20054;-68
2022/10/29 08:24:15;;;;;;;14.20;7.47;;;;;;;;;;10026832;28;20081;-68
2022/10/29 08:29:08;;;;;;;22.55;10.10;;;;;;;;;;10026485;28;20497;-67
2022/10/29 08:34:02;;;;;;;13.23;9.65;;;;;;;;;;10025421;28;20112;-68
2022/10/29 08:39:02;;;;;;;21.30;10.93;;;;;;;;;;10027387;28;20057;-68
2022/10/29 08:44:16;;;;;;;20.83;12.02;;;;;;;;;;10026490;28;20054;-68
2022/10/29 08:49:17;;;;;;;31.67;15.40;;;;;;;;;;10016464;28;20456;-68
2022/10/29 08:54:13;;;;;;;34.65;16.00;;;;;;;;;;10025153;28;20052;-68
2022/10/29 08:59:24;;;;;;;28.48;17.60;;;;;;;;;;10026251;28;20493;-68
2022/10/29 09:04:34;;;;;;;26.48;16.65;;;;;;;;;;10025906;28;20046;-68
2022/10/29 09:09:49;;;;;;;29.48;17.17;;;;;;;;;;10026049;28;20050;-68
2022/10/29 09:14:50;;;;;;;29.90;17.65;;;;;;;;;;10026296;28;20556;-68
2022/10/29 09:20:23;;;;;;;28.15;16.73;;;;;;;;;;10025924;28;20049;-68
2022/10/29 09:25:32;;;;;;;25.80;15.88;;;;;;;;;;10025131;28;20056;-68
2022/10/29 09:30:28;;;;;;;23.92;15.23;;;;;;;;;;10025153;28;20097;-68
2022/10/29 09:35:40;;;;;;;27.27;15.00;;;;;;;;;;10023996;28;20054;-67
2022/10/29 09:40:36;;;;;;;31.52;16.60;;;;;;;;;;10025742;28;20042;-68
2022/10/29 09:46:11;;;;;;;23.75;15.32;;;;;;;;;;10023854;28;20416;-68
2022/10/29 09:51:30;;;;;;;25.25;17.80;;;;;;;;;;10024594;28;20050;-68
2022/10/29 09:56:24;;;;;;;26.33;14.80;;;;;;;;;;10023831;28;20394;-67
2022/10/29 10:01:17;;;;;;;28.65;15.40;;;;;;;;;;10025058;28;20505;-68
2022/10/29 10:06:13;;;;;;;32.42;15.18;;;;;;;;;;10024243;28;20074;-67
2022/10/29 10:11:07;;;;;;;24.33;14.82;;;;;;;;;;10025159;28;20058;-68
2022/10/29 10:16:04;;;;;;;30.25;16.88;;;;;;;;;;10024701;28;20126;-67
2022/10/29 10:21:08;;;;;;;35.95;16.38;;;;;;;;;;10023384;28;20054;-67
2022/10/29 10:26:01;;;;;;;24.98;16.45;;;;;;;;;;10020110;28;20061;-68
2022/10/29 10:31:02;;;;;;;27.27;15.38;;;;;;;;;;10029113;28;20061;-68
2022/10/29 10:36:19;;;;;;;21.98;15.52;;;;;;;;;;10031227;28;20064;-68
2022/10/29 10:41:13;;;;;;;24.17;14.07;;;;;;;;;;10030692;28;20045;-68
2022/10/29 10:46:31;;;;;;;29.80;16.88;;;;;;;;;;10031045;28;20547;-68
2022/10/29 10:51:35;;;;;;;25.15;15.05;;;;;;;;;;10029808;28;20076;-68
2022/10/29 10:56:28;;;;;;;17.02;12.07;;;;;;;;;;10030505;28;20053;-68
2022/10/29 11:01:30;;;;;;;22.27;13.10;;;;;;;;;;10028889;28;20053;-68
2022/10/29 11:06:33;;;;;;;17.33;13.52;;;;;;;;;;10028934;28;20398;-68
2022/10/29 11:11:43;;;;;;;27.13;13.32;;;;;;;;;;10028835;28;20074;-68
2022/10/29 11:17:04;;;;;;;20.67;11.43;;;;;;;;;;10029787;28;20052;-68
2022/10/29 11:22:04;;;;;;;19.13;11.13;;;;;;;;;;10027968;28;20054;-68
2022/10/29 11:27:09;;;;;;;18.83;10.98;;;;;;;;;;10029236;28;20058;-68
2022/10/29 11:32:17;;;;;;;17.05;10.18;;;;;;;;;;10028551;28;20053;-68
2022/10/29 11:37:39;;;;;;;18.23;11.60;;;;;;;;;;10014661;28;20049;-68
2022/10/29 11:42:32;;;;;;;20.35;12.32;;;;;;;;;;10010894;28;20145;-67
2022/10/29 11:47:48;;;;;;;17.48;10.13;;;;;;;;;;10026256;28;20101;-67
2022/10/29 11:52:55;;;;;;;16.35;10.02;;;;;;;;;;10027964;28;20057;-72
2022/10/29 11:57:53;;;;;;;14.27;10.07;;;;;;;;;;10027485;28;20401;-67
2022/10/29 12:02:46;;;;;;;18.10;10.27;;;;;;;;;;10025869;28;20054;-67
2022/10/29 12:08:02;;;;;;;21.52;12.73;;;;;;;;;;10027346;28;20057;-67
2022/10/29 12:13:36;;;;;;;14.93;9.52;;;;;;;;;;10027145;28;21564;-67
2022/10/29 12:18:41;;;;;;;22.75;12.23;;;;;;;;;;10014769;28;20452;-67
2022/10/29 12:23:40;;;;;;;17.80;9.48;;;;;;;;;;10027766;28;20069;-66
2022/10/29 12:28:49;;;;;;;21.00;11.98;;;;;;;;;;10033458;28;20053;-67
2022/10/29 12:33:44;;;;;;;;;;;;;;;;;;10037931;28;20441;-67
2022/10/29 12:38:43;;;;;;;25.08;12.55;;;;;;;;;;10036518;28;19931;-68
2022/10/29 12:43:39;;;;;;;22.08;12.43;;;;;;;;;;10036719;28;20056;-68
2022/10/29 12:48:50;;;;;;;19.02;11.73;;;;;;;;;;10016433;28;20104;-69
2022/10/29 12:54:06;;;;;;;16.45;11.55;;;;;;;;;;10011522;28;20149;-68
2022/10/29 12:59:32;;;;;;;14.98;10.38;;;;;;;;;;10011831;28;20089;-68
2022/10/29 13:04:33;;;;;;;27.38;10.15;;;;;;;;;;10015844;28;20061;-68
2022/10/29 13:09:30;;;;;;;16.38;10.73;;;;;;;;;;10021422;28;20069;-68
2022/10/29 13:14:42;;;;;;;21.95;10.07;;;;;;;;;;10019782;28;20120;-68
2022/10/29 13:20:03;;;;;;;20.25;9.35;;;;;;;;;;10025835;28;20070;-67
2022/10/29 13:25:37;;;;;;;16.33;10.65;;;;;;;;;;10009996;28;20046;-68
2022/10/29 13:30:32;;;;;;;17.13;9.88;;;;;;;;;;10005748;28;20053;-69
2022/10/29 13:35:28;;;;;;;23.65;11.38;;;;;;;;;;10015291;28;20412;-66
2022/10/29 13:40:21;;;;;;;14.57;9.85;;;;;;;;;;9997215;28;20051;-67
2022/10/29 13:45:15;;;;;;;17.25;9.18;;;;;;;;;;10019185;28;20077;-69
2022/10/29 13:50:11;;;;;;;20.70;8.98;;;;;;;;;;10008619;28;20086;-70
2022/10/29 13:55:07;;;;;;;19.08;9.30;;;;;;;;;;10013955;28;20057;-66
2022/10/29 14:00:24;;;;;;;19.02;8.95;;;;;;;;;;10015302;28;20096;-67
2022/10/29 14:05:41;;;;;;;14.65;9.45;;;;;;;;;;10017083;28;20050;-67
2022/10/29 14:10:46;;;;;;;13.90;9.00;;;;;;;;;;10018729;28;20493;-69
2022/10/29 14:16:08;;;;;;;18.55;8.32;;;;;;;;;;10025876;28;20058;-69
2022/10/29 14:21:05;;;;;;;15.02;9.43;;;;;;;;;;10020162;28;20062;-69
2022/10/29 14:26:01;;;;;;;18.35;8.95;;;;;;;;;;10022332;28;20170;-69
2022/10/29 14:31:12;;;;;;;14.77;8.13;;;;;;;;;;10022849;28;20502;-68
2022/10/29 14:36:15;;;;;;;14.30;8.63;;;;;;;;;;10013975;28;20089;-68
2022/10/29 14:41:09;;;;;;;21.00;8.43;;;;;;;;;;10022848;28;20089;-68
2022/10/29 14:46:15;;;;;;;18.55;9.15;;;;;;;;;;10025810;28;20117;-67
2022/10/29 14:51:18;;;;;;;19.40;9.90;;;;;;;;;;10012144;28;20116;-68
2022/10/29 14:56:17;;;;;;;16.55;8.73;;;;;;;;;;10023460;28;20054;-68
2022/10/29 15:01:19;;;;;;;13.60;8.40;;;;;;;;;;10027411;28;20096;-67
2022/10/29 15:06:14;;;;;;;18.17;8.52;;;;;;;;;;10022902;28;20045;-68
2022/10/29 15:11:26;;;;;;;16.08;9.68;;;;;;;;;;10029392;28;20054;-67
2022/10/29 15:16:20;;;;;;;15.88;10.32;;;;;;;;;;10024882;28;20069;-67
2022/10/29 15:21:30;;;;;;;25.48;10.35;;;;;;;;;;10028936;28;20061;-67
2022/10/29 15:26:24;;;;;;;15.15;9.23;;;;;;;;;;10028450;28;20104;-67
2022/10/29 15:31:54;;;;;;;21.48;10.50;;;;;;;;;;10027626;28;20050;-67
2022/10/29 15:36:49;;;;;;;19.40;11.25;;;;;;;;;;9948088;28;20057;-66
2022/10/29 15:41:47;;;;;;;19.85;11.75;;;;;;;;;;10021062;28;20050;-70
2022/10/29 15:46:47;;;;;;;17.52;12.60;;;;;;;;;;10021446;28;20053;-69
2022/10/29 15:51:40;;;;;;;22.40;13.02;;;;;;;;;;10023869;28;20547;-67
2022/10/29 15:56:34;;;;;;;26.60;13.77;;;;;;;;;;10021656;28;20085;-67
2022/10/29 16:01:30;;;;;;;28.27;13.90;;;;;;;;;;10011030;28;20472;-67
2022/10/29 16:06:27;;;;;;;23.73;15.25;;;;;;;;;;10020965;28;20060;-67
2022/10/29 16:11:22;;;;;;;27.60;16.30;;;;;;;;;;10007629;28;20505;-67
2022/10/29 16:16:20;;;;;;;29.30;15.67;;;;;;;;;;10019689;28;20085;-65
2022/10/29 16:21:16;;;;;;;59.70;16.92;;;;;;;;;;10017768;28;20076;-67
2022/10/29 16:26:18;;;;;;;115.15;16.48;;;;;;;;;;10013075;28;20068;-66
2022/10/29 16:31:36;;;;;;;130.52;16.60;;;;;;;;;;10014818;28;20053;-67
2022/10/29 16:36:30;;;;;;;154.95;20.00;;;;;;;;;;10017703;28;20049;-74
2022/10/29 16:41:24;;;;;;;163.52;17.60;;;;;;;;;;10016085;28;20046;-67
2022/10/29 16:46:17;;;;;;;143.57;16.23;;;;;;;;;;10019629;28;20046;-69
2022/10/29 16:51:10;;;;;;;122.40;13.90;;;;;;;;;;10008135;28;20581;-68
2022/10/29 16:56:05;;;;;;;106.72;16.95;;;;;;;;;;10016206;28;20049;-66
2022/10/29 17:01:06;;;;;;;82.22;14.43;;;;;;;;;;10020139;28;20038;-66
2022/10/29 17:06:04;;;;;;;225.13;23.25;;;;;;;;;;10014802;28;20497;-68
2022/10/29 17:10:59;;;;;;;159.75;19.50;;;;;;;;;;10008633;28;20394;-66
2022/10/29 17:15:52;;;;;;;139.10;14.90;;;;;;;;;;10019344;28;20049;-67
2022/10/29 17:20:58;;;;;;;77.65;13.48;;;;;;;;;;10015025;28;20060;-66
2022/10/29 17:25:56;;;;;;;39.50;12.32;;;;;;;;;;10023871;28;20104;-66
2022/10/29 17:30:50;;;;;;;37.65;14.48;;;;;;;;;;10020479;28;20077;-66
2022/10/29 17:35:43;;;;;;;40.03;14.43;;;;;;;;;;10024219;28;20045;-67
2022/10/29 17:40:37;;;;;;;28.00;12.15;;;;;;;;;;10031618;28;20490;-66
2022/10/29 17:45:30;;;;;;;21.10;11.30;;;;;;;;;;10031083;28;20042;-66
2022/10/29 17:50:25;;;;;;;22.42;11.60;;;;;;;;;;10031924;28;20050;-66
2022/10/29 17:55:18;;;;;;;24.15;11.65;;;;;;;;;;10032418;28;20058;-67
2022/10/29 18:00:15;;;;;;;18.85;11.45;;;;;;;;;;10031676;28;20074;-68
2022/10/29 18:05:09;;;;;;;26.10;12.82;;;;;;;;;;10027169;28;20052;-68
2022/10/29 18:10:04;;;;;;;36.30;16.40;;;;;;;;;;10029776;28;20049;-68
2022/10/29 18:14:58;;;;;;;18.77;11.60;;;;;;;;;;10029102;28;20077;-70
2022/10/29 18:19:52;;;;;;;26.65;13.30;;;;;;;;;;10028141;28;20045;-69
2022/10/29 18:24:46;;;;;;;27.15;13.13;;;;;;;;;;10028593;28;20552;-68
2022/10/29 18:29:40;;;;;;;23.00;13.60;;;;;;;;;;10028575;28;20057;-69
2022/10/29 18:34:35;;;;;;;28.20;14.70;;;;;;;;;;10030841;28;20054;-68
2022/10/29 18:39:28;;;;;;;29.38;17.73;;;;;;;;;;10030134;28;20509;-68
2022/10/29 18:44:21;;;;;;;24.27;15.13;;;;;;;;;;10030421;28;20509;-68
2022/10/29 18:49:14;;;;;;;22.35;13.35;;;;;;;;;;10029951;28;20046;-68
2022/10/29 18:54:11;;;;;;;20.65;13.00;;;;;;;;;;10030999;28;20053;-68
2022/10/29 18:59:05;;;;;;;24.08;13.73;;;;;;;;;;10030063;28;20643;-68
2022/10/29 19:04:01;;;;;;;23.02;13.43;;;;;;;;;;10030301;28;20460;-68
2022/10/29 19:08:55;;;;;;;22.40;13.27;;;;;;;;;;10030386;28;20061;-68
2022/10/29 19:13:50;;;;;;;19.65;13.80;;;;;;;;;;10029819;28;20057;-69
2022/10/29 19:18:43;;;;;;;29.65;13.45;;;;;;;;;;10029265;28;20042;-70
2022/10/29 19:23:37;;;;;;;23.67;13.95;;;;;;;;;;10027996;28;20045;-68
2022/10/29 19:28:30;;;;;;;25.88;13.10;;;;;;;;;;10028969;28;20140;-68
2022/10/29 19:33:25;;;;;;;23.10;13.18;;;;;;;;;;10028688;28;20100;-68
2022/10/29 19:38:18;;;;;;;20.80;12.63;;;;;;;;;;10059782;28;20046;-68
2022/10/29 19:43:11;;;;;;;17.90;13.07;;;;;;;;;;10027980;28;20523;-68
2022/10/29 19:48:07;;;;;;;20.67;12.48;;;;;;;;;;10025667;28;20053;-68
2022/10/29 19:53:00;;;;;;;23.80;12.45;;;;;;;;;;10028280;28;20053;-68
2022/10/29 19:57:54;;;;;;;17.13;11.55;;;;;;;;;;10028327;28;20132;-68
2022/10/29 20:02:50;;;;;;;25.10;13.32;;;;;;;;;;10027351;28;20050;-68
2022/10/29 20:07:43;;;;;;;18.60;12.25;;;;;;;;;;10026121;28;20050;-68
2022/10/29 20:12:37;;;;;;;22.23;11.98;;;;;;;;;;10027160;28;20049;-68
2022/10/29 20:17:31;;;;;;;20.88;12.20;;;;;;;;;;10027465;28;20050;-68
2022/10/29 20:22:24;;;;;;;14.68;10.98;;;;;;;;;;10028202;28;20053;-68
2022/10/29 20:27:18;;;;;;;21.48;12.40;;;;;;;;;;10027952;28;20517;-69
2022/10/29 20:32:12;;;;;;;18.02;11.63;;;;;;;;;;10027358;28;20137;-68
2022/10/29 20:37:05;;;;;;;18.33;12.82;;;;;;;;;;10026815;28;20128;-68
2022/10/29 20:41:59;;;;;;;22.75;14.35;;;;;;;;;;10026517;28;20054;-68
2022/10/29 20:46:53;;;;;;;24.08;15.32;;;;;;;;;;10026532;28;20068;-68
2022/10/29 20:51:46;;;;;;;20.88;14.38;;;;;;;;;;10026322;28;20056;-68
2022/10/29 20:56:40;;;;;;;27.08;17.35;;;;;;;;;;10026612;28;20100;-68
2022/10/29 21:01:33;;;;;;;22.98;15.38;;;;;;;;;;10026221;28;20053;-68
2022/10/29 21:06:28;;;;;;;20.42;13.77;;;;;;;;;;10026351;28;20096;-68
2022/10/29 21:11:22;;;;;;;19.73;15.88;;;;;;;;;;10026075;28;20519;-68
2022/10/29 21:16:26;;;;;;;29.27;15.13;;;;;;;;;;10025550;28;20069;-68
2022/10/29 21:21:19;;;;;;;21.88;14.82;;;;;;;;;;10026116;28;20046;-68
2022/10/29 21:26:16;;;;;;;17.58;13.50;;;;;;;;;;10027257;28;20050;-68
2022/10/29 21:31:09;;;;;;;23.45;16.38;;;;;;;;;;10025711;28;20417;-69
2022/10/29 21:36:02;;;;;;;21.83;13.30;;;;;;;;;;10025077;28;20141;-68
2022/10/29 21:40:56;;;;;;;20.25;12.95;;;;;;;;;;10026687;28;20037;-69
2022/10/29 21:45:50;;;;;;;21.48;12.48;;;;;;;;;;10025261;28;20398;-68
2022/10/29 21:50:45;;;;;;;24.15;13.15;;;;;;;;;;10024530;28;20057;-68
2022/10/29 21:55:39;;;;;;;17.15;11.10;;;;;;;;;;10024595;28;20062;-68
2022/10/29 22:00:33;;;;;;;21.33;10.98;;;;;;;;;;10024494;28;20497;-68
2022/10/29 22:05:27;;;;;;;16.92;10.35;;;;;;;;;;10023945;28;20531;-67
2022/10/29 22:10:20;;;;;;;15.93;10.23;;;;;;;;;;10023794;28;20136;-68
2022/10/29 22:15:14;;;;;;;16.50;10.30;;;;;;;;;;10024603;28;20049;-66
2022/10/29 22:20:10;;;;;;;13.88;10.00;;;;;;;;;;10017316;28;20119;-68
2022/10/29 22:25:06;;;;;;;17.42;10.43;;;;;;;;;;10021277;28;20057;-67
2022/10/29 22:29:59;;;;;;;16.77;10.27;;;;;;;;;;10025875;28;20096;-68
2022/10/29 22:34:54;;;;;;;19.02;9.77;;;;;;;;;;10025187;28;20520;-68
2022/10/29 22:39:48;;;;;;;17.88;10.48;;;;;;;;;;10028448;28;20132;-67
2022/10/29 22:44:43;;;;;;;14.95;11.20;;;;;;;;;;10030587;28;20052;-67
2022/10/29 22:49:36;;;;;;;13.65;10.80;;;;;;;;;;10031485;28;20449;-67
2022/10/29 22:54:31;;;;;;;15.40;10.95;;;;;;;;;;10029535;28;20054;-67
2022/10/29 22:59:24;;;;;;;15.88;10.43;;;;;;;;;;10030496;28;20068;-67
2022/10/29 23:04:19;;;;;;;18.27;9.30;;;;;;;;;;10030511;28;20179;-68
2022/10/29 23:09:12;;;;;;;14.10;8.90;;;;;;;;;;10029962;28;20141;-67
2022/10/29 23:14:06;;;;;;;10.18;7.30;;;;;;;;;;10016358;28;20429;-68
2022/10/29 23:19:01;;;;;;;10.93;7.57;;;;;;;;;;10023473;28;20119;-68
2022/10/29 23:23:54;;;;;;;12.48;7.53;;;;;;;;;;10023252;28;20085;-69
2022/10/29 23:28:48;;;;;;;15.70;9.20;;;;;;;;;;10023557;28;20061;-69
2022/10/29 23:33:43;;;;;;;10.00;7.70;;;;;;;;;;10024986;28;20077;-68
2022/10/29 23:38:37;;;;;;;9.90;8.00;;;;;;;;;;10024637;28;20050;-68
2022/10/29 23:43:31;;;;;;;14.80;7.47;;;;;;;;;;10023162;28;20047;-68
2022/10/29 23:48:25;;;;;;;16.80;8.85;;;;;;;;;;10017420;28;20061;-68
2022/10/29 23:53:19;;;;;;;19.27;9.68;;;;;;;;;;10025244;28;20069;-68
2022/10/29 23:58:12;;;;;;;12.73;8.40;;;;;;;;;;10018729;28;20050;-68
